Time;durP1;ratioP1;P1;durP2;ratioP2;P2;SDS_P1;SDS_P2;PMS_P1;PMS_P2;Temp;Humidity;BMP_temperature;BMP_pressure;BME280_temperature;BME280_humidity;BME280_pressure;Samples;Min_cycle;Max_cycle;Signal;HPM_P1;HPM_P2
2021/12/01 00:00:39;;;;;;;0.20;0.20;;;;;;;9.05;87.40;100094.78;5056798;28;20032;-70
2021/12/01 00:03:05;;;;;;;0.10;0.10;;;;;;;9.11;87.24;100101.84;5063647;28;20028;-66
2021/12/01 00:05:31;;;;;;;0.10;0.10;;;;;;;9.13;87.29;100072.31;5076370;28;20040;-74
2021/12/01 00:07:57;;;;;;;0.10;0.10;;;;;;;9.09;87.44;100059.16;5059279;28;20025;-70
2021/12/01 00:10:24;;;;;;;0.10;0.10;;;;;;;9.08;87.34;100063.50;5076784;28;20028;-70
2021/12/01 00:12:51;;;;;;;0.20;0.20;;;;;;;9.04;87.29;100054.69;5076622;28;20079;-69
2021/12/01 00:15:17;;;;;;;0.10;0.10;;;;;;;9.09;87.23;100041.75;5059327;28;20276;-69
2021/12/01 00:17:42;;;;;;;0.10;0.10;;;;;;;9.13;86.60;100021.78;5076395;28;20154;-69
2021/12/01 00:20:10;;;;;;;0.10;0.10;;;;;;;9.17;86.39;100018.41;5076560;28;20375;-70
2021/12/01 00:22:36;;;;;;;0.10;0.10;;;;;;;9.24;85.80;100024.63;5058578;28;20448;-70
2021/12/01 00:25:03;;;;;;;0.00;0.00;;;;;;;9.21;85.86;100030.69;5076216;28;20029;-73
2021/12/01 00:27:28;;;;;;;0.10;0.10;;;;;;;9.21;85.76;99995.00;5074110;28;20048;-76
2021/12/01 00:29:54;;;;;;;0.10;0.10;;;;;;;9.22;85.62;99993.28;5057569;28;20101;-69
2021/12/01 00:32:20;;;;;;;0.20;0.20;;;;;;;9.25;85.46;99993.34;5059374;28;20389;-68
2021/12/01 00:34:45;;;;;;;0.10;0.10;;;;;;;9.27;85.47;99969.88;5075681;28;20103;-69
2021/12/01 00:37:11;;;;;;;0.10;0.10;;;;;;;9.31;85.26;99980.41;5059149;28;20409;-67
2021/12/01 00:39:36;;;;;;;0.20;0.20;;;;;;;9.33;85.37;99969.97;5074452;28;20043;-71
2021/12/01 00:42:02;;;;;;;0.10;0.10;;;;;;;9.29;85.50;99973.38;5058651;28;20020;-67
2021/12/01 00:44:29;;;;;;;0.13;0.13;;;;;;;9.28;85.68;99967.25;5057949;28;20029;-67
2021/12/01 00:47:06;;;;;;;0.17;0.17;;;;;;;9.27;85.93;99973.34;5075899;28;20079;-68
2021/12/01 00:49:37;;;;;;;0.20;0.20;;;;;;;9.33;85.64;99939.50;5075630;28;20020;-67
2021/12/01 00:52:05;;;;;;;0.20;0.20;;;;;;;9.32;85.57;99973.41;5075810;28;20065;-65
2021/12/01 00:54:31;;;;;;;0.10;0.10;;;;;;;9.29;85.86;99961.19;5075608;28;20036;-66
2021/12/01 00:56:56;;;;;;;0.00;0.00;;;;;;;9.25;85.78;99946.31;5075160;28;20379;-75
2021/12/01 00:59:22;;;;;;;0.30;0.30;;;;;;;9.21;86.21;99941.84;5064633;28;20040;-67
2021/12/01 01:01:48;;;;;;;0.10;0.10;;;;;;;9.25;85.80;99912.34;5058782;28;20282;-68
2021/12/01 01:04:14;;;;;;;0.10;0.10;;;;;;;9.28;85.36;99938.53;5075929;28;20379;-71
2021/12/01 01:06:42;;;;;;;0.30;0.30;;;;;;;9.32;85.03;99915.94;5075699;28;20453;-66
2021/12/01 01:09:08;;;;;;;0.10;0.10;;;;;;;9.31;84.84;99943.81;5058735;28;20074;-71
2021/12/01 01:17:06;;;;;;;0.30;0.30;;;;;;;9.39;83.26;99894.31;5074290;28;20338;-72
2021/12/01 01:19:33;;;;;;;0.30;0.30;;;;;;;9.41;82.48;99876.91;5057937;28;20039;-74
2021/12/01 01:22:00;;;;;;;0.30;0.30;;;;;;;9.40;82.74;99874.31;5075047;28;20032;-70
2021/12/01 01:24:27;;;;;;;0.20;0.20;;;;;;;9.40;82.46;99874.31;5074449;28;20029;-75
2021/12/01 01:26:53;;;;;;;0.20;0.20;;;;;;;9.42;82.32;99863.03;5075346;28;20031;-72
2021/12/01 01:29:21;;;;;;;0.30;0.30;;;;;;;9.43;82.13;99828.19;5075215;28;20020;-70
2021/12/01 01:31:51;;;;;;;0.30;0.30;;;;;;;9.49;81.96;99854.41;5075179;28;20268;-66
2021/12/01 01:34:17;;;;;;;0.30;0.30;;;;;;;9.52;81.67;99848.34;5038606;28;20024;-74
2021/12/01 01:36:42;;;;;;;0.23;0.23;;;;;;;9.48;81.85;99850.03;5072963;28;20300;-74
2021/12/01 01:39:07;;;;;;;0.20;0.20;;;;;;;9.43;82.28;99833.44;5073518;28;20036;-72
2021/12/01 01:41:33;;;;;;;0.30;0.30;;;;;;;9.41;82.12;99836.88;5057603;28;20024;-71
2021/12/01 01:43:59;;;;;;;0.47;0.47;;;;;;;9.43;81.71;99796.84;5057265;28;20396;-71
2021/12/01 01:46:30;;;;;;;0.30;0.30;;;;;;;9.52;81.33;99835.28;5074968;28;20151;-72
2021/12/01 01:49:05;;;;;;;0.30;0.30;;;;;;;9.55;81.28;99809.22;5075425;28;20342;-69
2021/12/01 01:51:30;;;;;;;0.20;0.20;;;;;;;9.49;81.44;99791.69;5063673;28;20314;-76
2021/12/01 01:53:57;;;;;;;0.20;0.20;;;;;;;9.52;80.99;99776.94;5075911;28;20099;-73
2021/12/01 01:56:23;;;;;;;0.20;0.20;;;;;;;9.51;81.04;99799.56;5075454;28;20387;-64
2021/12/01 01:58:48;;;;;;;0.27;0.27;;;;;;;9.52;80.95;99776.94;5075105;28;20035;-78
2021/12/01 02:04:00;;;;;;;0.30;0.30;;;;;;;9.52;80.79;99767.34;5071533;28;20426;-65
2021/12/01 02:06:26;;;;;;;0.27;0.27;;;;;;;9.58;80.14;99770.06;5063111;28;20012;-65
2021/12/01 02:08:53;;;;;;;0.20;0.20;;;;;;;9.56;80.22;99745.66;5057445;28;20016;-69
2021/12/01 02:11:19;;;;;;;0.30;0.30;;;;;;;9.52;81.07;99740.34;5077565;28;20081;-76
2021/12/01 02:13:45;;;;;;;0.40;0.40;;;;;;;9.47;81.04;99751.59;5079057;28;20291;-66
2021/12/01 02:16:12;;;;;;;0.20;0.20;;;;;;;9.47;81.06;99725.47;5078897;28;20031;-73
2021/12/01 02:18:38;;;;;;;0.20;0.20;;;;;;;9.45;81.06;99739.34;5058389;28;20028;-69
2021/12/01 02:21:11;;;;;;;0.40;0.40;;;;;;;9.50;80.58;99706.34;5079091;28;20020;-67
2021/12/01 02:23:39;;;;;;;0.40;0.40;;;;;;;9.47;80.98;99712.41;5077744;28;20033;-68
2021/12/01 02:26:05;;;;;;;0.20;0.20;;;;;;;9.49;81.05;99704.59;5078378;28;20024;-63
2021/12/01 02:28:31;;;;;;;0.30;0.30;;;;;;;9.44;80.87;99694.06;5078214;28;20344;-69
2021/12/01 02:30:57;;;;;;;0.40;0.40;;;;;;;9.43;80.88;99696.66;5074999;28;20295;-67
2021/12/01 02:33:23;;;;;;;0.30;0.30;;;;;;;9.42;81.10;99669.66;5075381;28;20119;-65
2021/12/01 02:35:48;;;;;;;0.30;0.30;;;;;;;9.41;81.26;99687.94;5078398;28;20017;-67
2021/12/01 02:38:14;;;;;;;0.30;0.30;;;;;;;9.45;80.95;99674.03;5077887;28;20025;-65
2021/12/01 02:40:39;;;;;;;0.23;0.23;;;;;;;9.44;80.79;99675.78;5060287;28;20120;-69
2021/12/01 02:43:05;;;;;;;0.30;0.30;;;;;;;9.46;80.78;99676.69;5061073;28;20035;-63
2021/12/01 02:45:30;;;;;;;0.47;0.47;;;;;;;9.40;81.28;99666.13;5069686;28;20017;-72
2021/12/01 02:47:56;;;;;;;0.30;0.30;;;;;;;9.34;82.13;99655.63;5060788;28;20024;-75
2021/12/01 02:50:21;;;;;;;0.30;0.30;;;;;;;9.29;82.43;99665.09;5078297;28;20040;-70
2021/12/01 02:52:46;;;;;;;0.40;0.40;;;;;;;9.27;82.45;99644.19;5076290;28;20039;-71
2021/12/01 02:55:15;;;;;;;0.33;0.33;;;;;;;9.19;83.06;99630.13;5060331;28;20355;-67
2021/12/01 02:57:47;;;;;;;0.37;0.37;;;;;;;9.11;83.71;99630.03;5077087;28;20037;-73
2021/12/01 03:00:13;;;;;;;0.30;0.30;;;;;;;9.02;83.75;99609.88;5077189;28;20056;-70
2021/12/01 03:02:39;;;;;;;0.30;0.30;;;;;;;8.93;84.23;99597.53;5068550;28;20028;-71
2021/12/01 03:05:06;;;;;;;0.20;0.20;;;;;;;8.83;84.92;99595.66;5043803;28;20021;-70
2021/12/01 03:07:32;;;;;;;0.30;0.30;;;;;;;8.83;84.64;99584.34;5051076;28;20064;-67
2021/12/01 03:09:58;;;;;;;0.10;0.10;;;;;;;8.79;84.94;99586.03;5077443;28;20096;-67
2021/12/01 03:12:30;;;;;;;0.17;0.17;;;;;;;8.75;84.92;99576.38;5077887;28;20459;-69
2021/12/01 03:14:56;;;;;;;0.10;0.10;;;;;;;8.72;84.80;99565.91;5077221;28;20391;-71
2021/12/01 03:17:22;;;;;;;0.23;0.23;;;;;;;8.66;85.01;99544.06;5077309;28;20058;-66
2021/12/01 03:19:47;;;;;;;0.43;0.43;;;;;;;8.64;85.03;99548.41;5075986;28;20327;-68
2021/12/01 03:22:13;;;;;;;0.30;0.30;;;;;;;8.62;85.21;99539.69;5039576;28;20049;-65
2021/12/01 03:24:39;;;;;;;0.10;0.10;;;;;;;8.62;85.18;99534.47;5040220;28;20091;-67
2021/12/01 03:27:05;;;;;;;0.20;0.20;;;;;;;8.57;85.22;99520.44;5058188;28;20403;-66
2021/12/01 03:29:31;;;;;;;0.10;0.10;;;;;;;8.51;85.48;99504.69;5057585;28;20395;-72
2021/12/01 03:31:56;;;;;;;0.17;0.17;;;;;;;8.44;85.68;99503.69;5057660;28;20116;-80
2021/12/01 03:34:22;;;;;;;0.20;0.20;;;;;;;8.39;85.33;99498.41;5058345;28;20084;-68
2021/12/01 03:36:48;;;;;;;0.20;0.20;;;;;;;8.43;85.49;99506.28;5057818;28;20064;-66
2021/12/01 03:39:13;;;;;;;0.30;0.30;;;;;;;8.38;85.54;99488.84;5057529;28;20100;-65
2021/12/01 03:41:39;;;;;;;0.10;0.10;;;;;;;8.32;86.01;99465.25;5057786;28;20029;-65
2021/12/01 03:44:05;;;;;;;0.10;0.10;;;;;;;8.25;86.04;99476.44;5057978;28;20025;-66
2021/12/01 03:46:30;;;;;;;0.10;0.10;;;;;;;8.20;86.30;99471.16;5069885;28;20025;-65
2021/12/01 03:48:55;;;;;;;0.10;0.10;;;;;;;8.17;86.28;99468.50;5076462;28;20040;-69
2021/12/01 03:51:21;;;;;;;0.07;0.07;;;;;;;8.15;86.31;99466.72;5077840;28;20020;-69
2021/12/01 03:53:48;;;;;;;0.20;0.20;;;;;;;8.12;86.42;99464.94;5077157;28;20049;-60
2021/12/01 03:56:13;;;;;;;0.20;0.20;;;;;;;8.10;86.42;99451.88;5075993;28;20393;-66
2021/12/01 03:58:39;;;;;;;0.10;0.10;;;;;;;8.03;86.50;99446.53;5076855;28;20039;-69
2021/12/01 04:01:04;;;;;;;0.00;0.00;;;;;;;8.02;86.73;99431.75;5077478;28;20029;-70
2021/12/01 04:03:30;;;;;;;0.20;0.20;;;;;;;8.02;86.53;99424.81;5073060;28;20121;-69
2021/12/01 04:05:55;;;;;;;0.20;0.20;;;;;;;7.95;86.74;99434.25;5040193;28;20020;-64
2021/12/01 04:08:21;;;;;;;0.30;0.30;;;;;;;7.96;86.58;99442.94;5056739;28;20029;-70
2021/12/01 04:10:46;;;;;;;0.10;0.10;;;;;;;7.91;86.68;99406.38;5057414;28;20037;-63
2021/12/01 04:13:11;;;;;;;0.10;0.10;;;;;;;7.86;86.99;99402.84;5056672;28;20028;-63
2021/12/01 04:15:37;;;;;;;0.10;0.10;;;;;;;7.84;86.85;99402.81;5057162;28;20066;-68
2021/12/01 04:18:02;;;;;;;0.10;0.10;;;;;;;7.85;86.33;99406.31;5057167;28;20025;-65
2021/12/01 04:20:28;;;;;;;0.10;0.10;;;;;;;7.87;86.83;99377.63;5058005;28;20112;-63
2021/12/01 04:22:54;;;;;;;0.10;0.10;;;;;;;7.83;87.03;99382.81;5056999;28;20040;-63
2021/12/01 04:25:20;;;;;;;0.00;0.00;;;;;;;7.81;87.15;99365.38;5056531;28;20052;-64
2021/12/01 04:27:45;;;;;;;0.20;0.20;;;;;;;7.78;87.03;99361.00;5039667;28;20284;-66
2021/12/01 04:30:13;;;;;;;0.10;0.10;;;;;;;7.79;87.29;99365.34;5056773;28;20286;-63
2021/12/01 04:32:39;;;;;;;0.03;0.03;;;;;;;7.80;87.04;99359.28;5056661;28;20021;-63
2021/12/01 04:35:05;;;;;;;0.07;0.07;;;;;;;7.86;86.76;99355.94;5056535;28;20071;-66
2021/12/01 04:37:30;;;;;;;0.10;0.10;;;;;;;7.85;87.09;99338.53;5048084;28;20036;-63
2021/12/01 04:39:55;;;;;;;0.10;0.10;;;;;;;7.83;86.89;99363.66;5055827;28;20035;-67
2021/12/01 04:42:22;;;;;;;0.00;0.00;;;;;;;7.80;86.87;99327.16;5055941;28;20060;-66
2021/12/01 04:44:47;;;;;;;0.20;0.20;;;;;;;7.80;86.89;99325.41;5039385;28;20013;-67
2021/12/01 04:47:14;;;;;;;0.00;0.00;;;;;;;7.81;86.88;99334.13;5074892;28;20042;-70
2021/12/01 04:49:40;;;;;;;0.20;0.20;;;;;;;7.78;86.86;99332.34;5076114;28;20043;-68
2021/12/01 04:52:07;;;;;;;0.10;0.10;;;;;;;7.79;87.02;99330.63;5076163;28;20280;-64
2021/12/01 04:54:34;;;;;;;0.20;0.20;;;;;;;7.80;86.75;99324.53;5075935;28;20394;-69
2021/12/01 04:57:01;;;;;;;0.20;0.20;;;;;;;7.83;86.73;99322.88;5076510;28;20028;-66
2021/12/01 04:59:26;;;;;;;0.10;0.10;;;;;;;7.86;86.36;99308.13;5075704;28;20043;-64
2021/12/01 05:01:53;;;;;;;0.10;0.10;;;;;;;7.87;86.30;99323.78;5059218;28;20032;-61
2021/12/01 05:04:19;;;;;;;0.10;0.10;;;;;;;7.88;86.27;99324.66;5042311;28;20054;-70
2021/12/01 05:06:44;;;;;;;0.10;0.10;;;;;;;7.87;86.31;99294.22;5075998;28;20024;-66
2021/12/01 05:09:10;;;;;;;0.10;0.10;;;;;;;7.82;86.65;99297.66;5073859;28;20162;-68
2021/12/01 05:11:36;;;;;;;0.20;0.20;;;;;;;7.83;86.66;99277.66;5076220;28;20081;-65
2021/12/01 05:14:01;;;;;;;0.10;0.10;;;;;;;7.82;86.52;99274.22;5058793;28;20047;-68
2021/12/01 05:16:27;;;;;;;0.20;0.20;;;;;;;7.83;86.63;99275.06;5075368;28;20063;-68
2021/12/01 05:18:53;;;;;;;0.03;0.03;;;;;;;7.82;86.84;99278.53;5075861;28;20043;-71
2021/12/01 05:21:18;;;;;;;0.10;0.10;;;;;;;7.83;86.73;99275.06;5058643;28;20036;-70
2021/12/01 05:23:44;;;;;;;0.10;0.10;;;;;;;7.85;86.69;99278.59;5071689;28;20028;-67
2021/12/01 05:26:10;;;;;;;0.00;0.00;;;;;;;7.88;86.65;99277.75;5061736;28;20054;-79
2021/12/01 05:28:37;;;;;;;0.10;0.10;;;;;;;7.92;86.61;99261.31;5058194;28;20031;-69
2021/12/01 05:31:02;;;;;;;0.10;0.10;;;;;;;7.91;86.68;99262.16;5076105;28;20020;-65
2021/12/01 05:33:28;;;;;;;0.20;0.20;;;;;;;7.93;87.02;99257.84;5057777;28;20295;-71
2021/12/01 05:35:53;;;;;;;0.00;0.00;;;;;;;7.90;86.82;99255.19;5076262;28;20043;-68
2021/12/01 05:38:19;;;;;;;0.00;0.00;;;;;;;7.94;86.69;99257.88;5074711;28;20028;-69
2021/12/01 05:40:47;;;;;;;0.00;0.00;;;;;;;7.96;86.49;99248.34;5071874;28;20070;-71
2021/12/01 05:43:13;;;;;;;0.03;0.03;;;;;;;7.93;86.67;99256.13;5059076;28;20028;-68
2021/12/01 05:45:39;;;;;;;0.10;0.10;;;;;;;7.92;86.87;99249.13;5059245;28;20020;-65
2021/12/01 05:48:04;;;;;;;0.10;0.10;;;;;;;7.92;86.67;99233.50;5077342;28;20082;-64
2021/12/01 05:50:30;;;;;;;0.10;0.10;;;;;;;7.95;86.67;99238.75;5078201;28;20115;-69
2021/12/01 05:52:55;;;;;;;0.10;0.10;;;;;;;8.00;86.48;99250.97;5080170;28;20032;-65
2021/12/01 05:55:21;;;;;;;0.30;0.30;;;;;;;8.01;86.37;99240.56;5079662;28;20065;-67
2021/12/01 05:57:47;;;;;;;0.00;0.00;;;;;;;8.04;86.39;99242.34;5058984;28;20308;-69
2021/12/01 06:00:13;;;;;;;0.10;0.10;;;;;;;8.08;86.08;99223.25;5077482;28;20036;-68
2021/12/01 06:02:42;;;;;;;0.10;0.10;;;;;;;8.08;86.23;99223.25;5062377;28;20039;-64
2021/12/01 06:05:08;;;;;;;0.10;0.10;;;;;;;8.13;85.99;99216.38;5079319;28;20024;-67
2021/12/01 06:07:33;;;;;;;0.20;0.20;;;;;;;8.09;86.15;99210.25;5076782;28;20351;-64
2021/12/01 06:10:01;;;;;;;0.10;0.10;;;;;;;8.10;86.10;99211.16;5072376;28;20052;-68
2021/12/01 06:12:28;;;;;;;0.10;0.10;;;;;;;8.10;85.81;99198.97;5062161;28;20359;-67
2021/12/01 06:14:54;;;;;;;0.10;0.10;;;;;;;8.16;85.77;99195.56;5047303;28;20074;-66
2021/12/01 06:17:19;;;;;;;0.10;0.10;;;;;;;8.17;85.63;99201.66;5061630;28;20371;-68
2021/12/01 06:19:45;;;;;;;0.20;0.20;;;;;;;8.14;85.82;99186.00;5071913;28;20040;-67
2021/12/01 06:22:10;;;;;;;0.17;0.17;;;;;;;8.10;85.64;99200.72;5078880;28;20421;-69
2021/12/01 06:24:36;;;;;;;0.00;0.00;;;;;;;8.09;86.29;99204.16;5078935;28;20032;-69
2021/12/01 06:27:03;;;;;;;0.10;0.10;;;;;;;8.05;86.56;99189.34;5079350;28;20032;-64
2021/12/01 06:29:28;;;;;;;0.10;0.10;;;;;;;8.03;86.09;99197.13;5077919;28;20032;-69
2021/12/01 06:31:54;;;;;;;0.10;0.10;;;;;;;8.02;86.73;99194.53;5079369;28;20111;-68
2021/12/01 06:34:19;;;;;;;0.10;0.10;;;;;;;8.01;86.87;99203.19;5077243;28;20052;-69
2021/12/01 06:36:44;;;;;;;0.13;0.13;;;;;;;8.05;86.69;99197.16;5067901;28;20032;-69
2021/12/01 06:39:10;;;;;;;0.10;0.10;;;;;;;8.02;86.82;99189.31;5075627;28;20037;-64
2021/12/01 06:41:36;;;;;;;0.00;0.00;;;;;;;8.00;87.01;99157.13;5075870;28;20051;-67
2021/12/01 06:44:02;;;;;;;0.00;0.00;;;;;;;8.00;86.88;99167.56;5061490;28;20043;-64
2021/12/01 06:46:28;;;;;;;0.00;0.00;;;;;;;8.00;86.99;99162.34;5078492;28;20051;-65
2021/12/01 06:48:54;;;;;;;0.20;0.20;;;;;;;8.02;86.89;99153.69;5077748;28;20031;-67
2021/12/01 06:51:19;;;;;;;0.03;0.03;;;;;;;8.00;86.88;99159.72;5060320;28;20037;-72
2021/12/01 06:53:45;;;;;;;0.10;0.10;;;;;;;8.02;86.92;99160.66;5073416;28;20028;-64
2021/12/01 06:56:10;;;;;;;0.10;0.10;;;;;;;8.05;86.67;99145.03;5057530;28;20175;-68
2021/12/01 06:58:37;;;;;;;0.10;0.10;;;;;;;8.11;86.34;99140.75;5058138;28;20036;-67
2021/12/01 07:01:05;;;;;;;0.10;0.10;;;;;;;8.06;86.27;99147.66;5058907;28;20044;-64
2021/12/01 07:03:33;;;;;;;0.30;0.30;;;;;;;8.14;86.13;99155.56;5058068;28;20137;-66
2021/12/01 07:05:59;;;;;;;0.10;0.10;;;;;;;8.13;86.02;99146.00;5041563;28;20316;-63
2021/12/01 07:08:24;;;;;;;0.10;0.10;;;;;;;8.09;86.27;99146.81;5058000;28;20394;-65
2021/12/01 07:10:49;;;;;;;0.03;0.03;;;;;;;8.15;86.07;99136.44;5058364;28;20186;-68
2021/12/01 07:13:15;;;;;;;0.10;0.10;;;;;;;8.15;86.24;99130.38;5064990;28;20286;-66
2021/12/01 07:15:40;;;;;;;0.10;0.10;;;;;;;8.13;86.30;99126.84;5059687;28;20028;-67
2021/12/01 07:18:06;;;;;;;0.07;0.07;;;;;;;8.13;86.44;99117.31;5058390;28;20029;-66
2021/12/01 07:20:31;;;;;;;0.10;0.10;;;;;;;8.18;86.24;99125.19;5058124;28;20099;-74
2021/12/01 07:22:56;;;;;;;0.20;0.20;;;;;;;8.21;86.07;99112.16;5074543;28;20746;-67
2021/12/01 07:25:22;;;;;;;0.00;0.00;;;;;;;8.19;86.25;99113.88;5060705;28;20110;-65
2021/12/01 07:27:47;;;;;;;0.13;0.13;;;;;;;8.17;86.68;99116.50;5077771;28;20350;-66
2021/12/01 07:30:13;;;;;;;0.10;0.10;;;;;;;8.18;86.47;99126.06;5077719;28;20082;-63
2021/12/01 07:32:38;;;;;;;0.10;0.10;;;;;;;8.15;86.55;99141.66;5077175;28;20035;-69
2021/12/01 07:35:04;;;;;;;0.27;0.27;;;;;;;8.19;86.38;99125.22;5060526;28;20336;-69
2021/12/01 07:37:29;;;;;;;0.10;0.10;;;;;;;8.17;86.42;99126.03;5060671;28;20029;-64
2021/12/01 07:39:55;;;;;;;0.00;0.00;;;;;;;8.17;86.62;99126.03;5077278;28;20059;-68
2021/12/01 07:42:21;;;;;;;0.10;0.10;;;;;;;8.09;86.63;99146.81;5077722;28;20029;-66
2021/12/01 07:44:46;;;;;;;0.10;0.10;;;;;;;8.08;86.56;99121.59;5065138;28;20072;-65
2021/12/01 07:47:11;;;;;;;0.10;0.10;;;;;;;8.03;85.68;99154.56;5055129;28;20037;-67
2021/12/01 07:49:40;;;;;;;0.10;0.10;;;;;;;8.01;84.25;99185.81;5057262;28;20024;-64
2021/12/01 07:52:07;;;;;;;0.10;0.10;;;;;;;7.99;83.35;99153.66;5057875;28;20029;-65
2021/12/01 07:54:33;;;;;;;0.27;0.27;;;;;;;7.91;82.81;99153.56;5039805;28;20326;-64
2021/12/01 07:56:59;;;;;;;0.20;0.20;;;;;;;7.88;80.41;99156.13;5071250;28;20283;-66
2021/12/01 07:59:24;;;;;;;0.30;0.30;;;;;;;7.88;79.16;99121.38;5077315;28;20060;-65
2021/12/01 08:01:50;;;;;;;0.30;0.30;;;;;;;7.80;79.26;99145.59;5043515;28;20035;-66
2021/12/01 08:04:15;;;;;;;0.30;0.30;;;;;;;7.79;79.16;99149.06;5077494;28;20115;-67
2021/12/01 08:06:43;;;;;;;0.30;0.30;;;;;;;7.78;78.63;99151.66;5077378;28;20104;-67
2021/12/01 08:09:09;;;;;;;0.30;0.30;;;;;;;7.72;79.57;99165.47;5041979;28;20406;-67
2021/12/01 08:11:35;;;;;;;0.30;0.30;;;;;;;7.69;79.05;99168.06;5076558;28;20028;-67
2021/12/01 08:14:00;;;;;;;0.20;0.20;;;;;;;7.64;79.69;99146.25;5059701;28;20039;-66
2021/12/01 08:16:26;;;;;;;0.27;0.27;;;;;;;7.65;79.56;99182.75;5059404;28;20032;-72
2021/12/01 08:18:54;;;;;;;0.20;0.20;;;;;;;7.61;80.44;99178.38;5065962;28;20044;-74
2021/12/01 08:21:20;;;;;;;0.20;0.20;;;;;;;7.56;80.32;99190.44;5059398;28;20429;-66
2021/12/01 08:23:46;;;;;;;0.37;0.37;;;;;;;7.53;80.65;99169.59;5075580;28;20444;-69
2021/12/01 08:26:11;;;;;;;0.30;0.30;;;;;;;7.50;80.23;99165.19;5066327;28;20024;-67
2021/12/01 08:28:37;;;;;;;0.30;0.30;;;;;;;7.50;80.83;99180.81;5056481;28;20033;-69
2021/12/01 08:31:02;;;;;;;0.20;0.20;;;;;;;7.53;80.19;99177.41;5040979;28;20036;-74
2021/12/01 08:33:27;;;;;;;0.20;0.20;;;;;;;7.55;80.58;99173.06;5074707;28;20402;-72
2021/12/01 08:35:53;;;;;;;0.20;0.20;;;;;;;7.52;80.36;99173.91;5070539;28;20470;-66
2021/12/01 08:38:18;;;;;;;0.33;0.33;;;;;;;7.52;79.20;99188.66;5076324;28;20040;-65
2021/12/01 08:40:44;;;;;;;0.23;0.23;;;;;;;7.54;79.05;99172.19;5075990;28;20074;-73
2021/12/01 08:43:09;;;;;;;0.20;0.20;;;;;;;7.57;79.37;99173.97;5076364;28;20075;-64
2021/12/01 08:45:35;;;;;;;0.33;0.33;;;;;;;7.53;79.92;99185.22;5076386;28;20046;-67
2021/12/01 08:48:03;;;;;;;0.20;0.20;;;;;;;7.55;80.14;99191.31;5076953;28;20039;-65
2021/12/01 08:50:28;;;;;;;0.30;0.30;;;;;;;7.57;79.78;99194.81;5076187;28;20299;-74
2021/12/01 08:52:53;;;;;;;0.30;0.30;;;;;;;7.59;80.53;99216.53;5072541;28;20047;-69
2021/12/01 08:55:21;;;;;;;0.10;0.10;;;;;;;7.58;80.39;99216.53;5057475;28;20025;-71
2021/12/01 08:57:47;;;;;;;0.20;0.20;;;;;;;7.53;80.52;99204.31;5039488;28;20044;-68
2021/12/01 09:00:14;;;;;;;0.20;0.20;;;;;;;7.49;80.63;99217.25;5038764;28;20021;-68
2021/12/01 09:02:39;;;;;;;0.30;0.30;;;;;;;7.42;80.90;99242.34;5056160;28;20032;-73
2021/12/01 09:05:05;;;;;;;0.20;0.20;;;;;;;7.43;80.92;99220.66;5038435;28;20047;-68
2021/12/01 09:07:30;;;;;;;0.20;0.20;;;;;;;7.40;81.28;99228.41;5069164;28;20047;-73
2021/12/01 09:09:56;;;;;;;0.20;0.20;;;;;;;7.43;81.41;99229.31;5075459;28;20024;-68
2021/12/01 09:12:22;;;;;;;0.27;0.27;;;;;;;7.46;80.81;99225.03;5076474;28;20398;-72
2021/12/01 09:14:47;;;;;;;0.30;0.30;;;;;;;7.49;80.97;99230.28;5076167;28;20035;-68
2021/12/01 09:17:13;;;;;;;0.30;0.30;;;;;;;7.49;81.09;99231.19;5058301;28;20048;-67
2021/12/01 09:19:39;;;;;;;0.30;0.30;;;;;;;7.42;81.33;99252.78;5075984;28;20025;-68
2021/12/01 09:22:05;;;;;;;0.20;0.20;;;;;;;7.26;82.09;99256.84;5075942;28;20032;-66
2021/12/01 09:24:30;;;;;;;0.13;0.13;;;;;;;7.17;82.92;99256.69;5075431;28;20036;-64
2021/12/01 09:26:56;;;;;;;0.20;0.20;;;;;;;7.06;83.61;99252.19;5076031;28;20025;-64
2021/12/01 09:29:22;;;;;;;0.20;0.20;;;;;;;7.00;83.23;99250.38;5075347;28;20048;-64
2021/12/01 09:31:48;;;;;;;0.20;0.20;;;;;;;7.01;83.48;99253.81;5075853;28;20081;-64
2021/12/01 09:34:13;;;;;;;0.20;0.20;;;;;;;7.05;82.88;99244.34;5075997;28;20040;-66
2021/12/01 09:36:39;;;;;;;0.20;0.20;;;;;;;7.06;83.33;99260.00;5075543;28;20038;-67
2021/12/01 09:39:06;;;;;;;0.10;0.10;;;;;;;7.09;82.92;99257.44;5075136;28;20024;-67
2021/12/01 09:41:31;;;;;;;0.20;0.20;;;;;;;7.14;82.07;99261.00;5075057;28;20124;-69
2021/12/01 09:43:56;;;;;;;0.20;0.20;;;;;;;7.16;81.61;99248.00;5058518;28;20191;-66
2021/12/01 09:46:22;;;;;;;0.20;0.20;;;;;;;7.11;81.77;99271.34;5075883;28;20391;-67
2021/12/01 09:48:48;;;;;;;0.30;0.30;;;;;;;7.10;81.82;99273.94;5074592;28;20052;-64
2021/12/01 09:51:16;;;;;;;0.10;0.10;;;;;;;7.08;81.24;99266.09;5074833;28;20059;-65
2021/12/01 09:53:42;;;;;;;0.20;0.20;;;;;;;7.05;81.34;99273.88;5056181;28;20051;-73
2021/12/01 09:56:08;;;;;;;0.20;0.20;;;;;;;7.02;81.60;99299.81;5075060;28;20035;-66
2021/12/01 09:58:35;;;;;;;0.20;0.20;;;;;;;7.05;81.48;99276.47;5075265;28;20028;-68
2021/12/01 10:01:07;;;;;;;0.17;0.17;;;;;;;7.05;81.60;99279.06;5075121;28;20108;-67
2021/12/01 10:03:32;;;;;;;0.10;0.10;;;;;;;7.01;82.46;99278.13;5075199;28;20036;-66
2021/12/01 10:06:04;;;;;;;0.30;0.30;;;;;;;6.97;82.87;99280.66;5058274;28;20572;-65
2021/12/01 10:08:34;;;;;;;0.20;0.20;;;;;;;6.99;83.19;99273.75;5074558;28;20060;-64
2021/12/01 10:11:02;;;;;;;0.17;0.17;;;;;;;6.98;83.25;99280.66;5041986;28;20024;-66
2021/12/01 10:13:31;;;;;;;0.20;0.20;;;;;;;7.03;83.36;99272.94;5041351;28;20020;-64
2021/12/01 10:16:01;;;;;;;0.30;0.30;;;;;;;7.07;83.08;99266.94;5075615;28;20290;-65
2021/12/01 10:18:28;;;;;;;0.20;0.20;;;;;;;7.09;83.25;99265.25;5075397;28;20303;-68
2021/12/01 10:21:29;;;;;;;0.20;0.20;;;;;;;7.07;83.20;99250.44;5075342;28;20037;-66
2021/12/01 10:23:56;;;;;;;0.10;0.10;;;;;;;7.08;83.04;99263.50;5011551;28;20075;-66
2021/12/01 10:26:33;;;;;;;0.10;0.10;;;;;;;7.12;81.90;99264.44;5055212;28;20639;-66
2021/12/01 10:29:05;;;;;;;0.20;0.20;;;;;;;7.15;82.30;99254.06;5055246;28;20033;-66
2021/12/01 10:31:30;;;;;;;0.30;0.30;;;;;;;7.22;81.84;99260.25;5056279;28;20104;-67
2021/12/01 10:33:56;;;;;;;0.20;0.20;;;;;;;7.26;80.86;99265.53;5059157;28;20117;-65
2021/12/01 10:36:25;;;;;;;0.20;0.20;;;;;;;7.34;79.90;99247.41;5058565;28;20068;-66
2021/12/01 10:39:03;;;;;;;0.20;0.20;;;;;;;7.36;80.01;99261.34;5058651;28;20411;-65
2021/12/01 10:41:36;;;;;;;0.30;0.30;;;;;;;7.39;79.69;99247.50;5058073;28;20040;-68
2021/12/01 10:44:08;;;;;;;0.27;0.27;;;;;;;7.38;79.93;99249.25;5059080;28;20025;-68
2021/12/01 10:46:45;;;;;;;0.30;0.30;;;;;;;7.40;79.85;99257.06;5071448;28;20382;-65
2021/12/01 10:49:11;;;;;;;0.30;0.30;;;;;;;7.36;79.62;99269.16;5078809;28;20036;-65
2021/12/01 10:51:39;;;;;;;0.30;0.30;;;;;;;7.43;77.87;99250.16;5061407;28;20338;-64
2021/12/01 10:54:13;;;;;;;0.20;0.20;;;;;;;7.46;78.81;99253.69;5078080;28;20024;-64
2021/12/01 10:56:38;;;;;;;0.20;0.20;;;;;;;7.47;76.69;99255.44;5075505;28;20036;-68
2021/12/01 10:59:12;;;;;;;0.30;0.30;;;;;;;7.51;77.79;99252.00;5077515;28;20284;-67
2021/12/01 11:01:37;;;;;;;0.30;0.30;;;;;;;7.52;76.17;99262.47;5078224;28;20037;-65
2021/12/01 11:04:03;;;;;;;0.20;0.20;;;;;;;7.49;76.83;99258.94;5061106;28;20097;-64
2021/12/01 11:06:33;;;;;;;0.20;0.20;;;;;;;7.52;76.29;99254.66;5078201;28;20028;-67
2021/12/01 11:08:59;;;;;;;0.40;0.40;;;;;;;7.54;75.57;99258.16;5078178;28;20028;-66
2021/12/01 11:11:35;;;;;;;0.30;0.30;;;;;;;7.60;75.67;99253.91;5044292;28;20074;-69
2021/12/01 11:14:13;;;;;;;0.38;0.38;;;;;;;7.63;74.78;99270.44;5078257;28;20025;-68
2021/12/01 11:16:40;;;;;;;0.20;0.20;;;;;;;7.66;75.30;99254.84;5060720;28;20054;-65
2021/12/01 11:19:06;;;;;;;0.30;0.30;;;;;;;7.65;74.77;99255.72;5077362;28;20044;-67
2021/12/01 11:21:31;;;;;;;0.30;0.30;;;;;;;7.61;76.23;99261.75;5078040;28;20033;-67
2021/12/01 11:24:01;;;;;;;0.23;0.23;;;;;;;7.62;75.43;99284.34;5077829;28;20021;-68
2021/12/01 11:26:28;;;;;;;0.33;0.33;;;;;;;7.61;74.76;99259.13;5060760;28;20078;-65
2021/12/01 11:29:08;;;;;;;0.40;0.40;;;;;;;7.61;74.54;99259.13;5060574;28;20062;-67
2021/12/01 11:31:40;;;;;;;0.30;0.30;;;;;;;7.63;75.92;99246.13;5077916;28;20422;-65
2021/12/01 11:34:09;;;;;;;0.40;0.40;;;;;;;7.64;75.68;99251.34;5077884;28;20024;-68
2021/12/01 11:36:38;;;;;;;0.30;0.30;;;;;;;7.66;74.92;99252.25;5077563;28;20072;-67
2021/12/01 11:39:06;;;;;;;0.50;0.50;;;;;;;7.70;74.66;99264.47;5077584;28;20379;-65
2021/12/01 11:41:33;;;;;;;0.20;0.20;;;;;;;7.63;76.10;99266.97;5077721;28;20024;-70
2021/12/01 11:43:59;;;;;;;0.23;0.23;;;;;;;7.63;75.63;99257.44;5075700;28;20020;-66
2021/12/01 11:46:25;;;;;;;0.30;0.30;;;;;;;7.60;75.66;99257.34;5060010;28;20085;-65